Time;durP1;ratioP1;P1;durP2;ratioP2;P2;SDS_P1;SDS_P2;PMS_P1;PMS_P2;Temp;Humidity;BMP_temperature;BMP_pressure;BME280_temperature;BME280_humidity;BME280_pressure;Samples;Min_cycle;Max_cycle;Signal;HPM_P1;HPM_P2
2023/04/24 00:00:09;;;;;;;1.40;1.30;;;11.40;99.90;;;;;;5044301;28;20052;-78
2023/04/24 00:02:37;;;;;;;2.33;1.67;;;11.30;99.90;;;;;;5039013;28;20160;-79
2023/04/24 00:05:05;;;;;;;1.10;1.10;;;11.30;99.90;;;;;;5044005;28;20448;-78
2023/04/24 00:07:31;;;;;;;2.05;1.50;;;11.30;99.90;;;;;;5058874;28;20132;-78
2023/04/24 00:09:57;;;;;;;1.65;1.35;;;11.30;99.90;;;;;;5046804;28;20792;-79
2023/04/24 00:12:23;;;;;;;1.05;1.05;;;11.30;99.90;;;;;;5059202;28;20485;-79
2023/04/24 00:14:49;;;;;;;1.67;1.10;;;11.20;99.90;;;;;;5042856;28;20120;-79
2023/04/24 00:17:15;;;;;;;0.90;0.90;;;11.10;99.90;;;;;;5049641;28;20075;-79
2023/04/24 00:19:40;;;;;;;1.20;1.08;;;11.10;99.90;;;;;;5057375;28;20143;-79
2023/04/24 00:22:06;;;;;;;0.88;0.88;;;11.10;99.90;;;;;;5055686;28;20568;-78
2023/04/24 00:24:32;;;;;;;5.05;1.92;;;11.10;99.90;;;;;;5059756;28;20047;-79
2023/04/24 00:26:58;;;;;;;1.10;1.00;;;11.00;99.90;;;;;;5050467;28;20130;-79
2023/04/24 00:29:24;;;;;;;1.23;1.13;;;11.00;99.90;;;;;;5047475;28;20056;-79
2023/04/24 00:31:49;;;;;;;0.80;0.80;;;11.00;99.90;;;;;;5054430;28;20118;-79
2023/04/24 00:34:15;;;;;;;0.77;0.77;;;11.00;99.90;;;;;;5058847;28;20049;-79
2023/04/24 00:36:41;;;;;;;1.13;1.00;;;11.00;99.90;;;;;;5055806;28;20040;-79
2023/04/24 00:39:08;;;;;;;1.15;1.05;;;11.00;99.90;;;;;;5056903;28;20481;-79
2023/04/24 00:41:34;;;;;;;0.98;0.98;;;10.90;99.90;;;;;;5068260;28;20056;-79
2023/04/24 00:44:00;;;;;;;1.23;1.13;;;10.90;99.90;;;;;;5068865;28;20048;-79
2023/04/24 00:46:26;;;;;;;1.45;1.20;;;10.90;99.90;;;;;;5067635;28;20045;-78
2023/04/24 00:48:52;;;;;;;1.25;0.90;;;10.90;99.90;;;;;;5067324;28;20072;-79
2023/04/24 00:51:18;;;;;;;1.30;1.20;;;10.90;99.90;;;;;;5066274;28;20055;-78
2023/04/24 00:53:44;;;;;;;1.50;1.40;;;10.90;99.90;;;;;;5067147;28;20044;-78
2023/04/24 00:56:10;;;;;;;1.95;1.77;;;10.90;99.90;;;;;;5080115;28;20059;-78
2023/04/24 00:58:36;;;;;;;1.33;1.30;;;10.90;99.90;;;;;;5060663;28;20052;-78
2023/04/24 01:01:06;;;;;;;1.42;1.27;;;10.90;99.90;;;;;;5065477;28;20056;-78
2023/04/24 01:03:33;;;;;;;1.90;1.33;;;10.80;99.90;;;;;;5051746;28;20103;-78
2023/04/24 01:05:59;;;;;;;1.67;1.38;;;10.80;99.90;;;;;;5065433;28;20048;-78
2023/04/24 01:08:27;;;;;;;1.50;1.40;;;10.80;99.90;;;;;;5064326;28;20052;-78
2023/04/24 01:10:54;;;;;;;1.52;1.42;;;10.90;99.90;;;;;;5056043;28;20059;-79
2023/04/24 01:13:21;;;;;;;1.17;1.17;;;10.90;99.90;;;;;;5097030;28;20094;-78
2023/04/24 01:15:47;;;;;;;1.77;1.67;;;10.90;99.90;;;;;;5064013;28;20064;-78
2023/04/24 01:18:13;;;;;;;1.50;1.40;;;10.90;99.90;;;;;;5060861;28;20557;-78
2023/04/24 01:20:41;;;;;;;1.58;1.48;;;10.80;99.90;;;;;;5096455;28;20041;-78
2023/04/24 01:23:07;;;;;;;1.77;1.67;;;10.80;99.90;;;;;;5060188;28;20044;-78
2023/04/24 01:25:34;;;;;;;2.15;1.70;;;10.80;99.90;;;;;;5058396;28;20044;-78
2023/04/24 01:27:59;;;;;;;2.33;2.13;;;10.80;99.90;;;;;;5058316;28;20091;-78
2023/04/24 01:30:26;;;;;;;1.92;1.80;;;10.80;99.90;;;;;;5056950;28;20159;-78
2023/04/24 01:32:52;;;;;;;2.03;1.92;;;10.90;99.90;;;;;;5062393;28;20049;-78
2023/04/24 01:35:18;;;;;;;1.83;1.73;;;10.90;99.90;;;;;;5053996;28;20063;-78
2023/04/24 01:37:44;;;;;;;2.17;1.83;;;10.90;99.90;;;;;;5051557;28;20488;-78
2023/04/24 01:40:10;;;;;;;2.33;2.13;;;10.90;99.90;;;;;;5062264;28;20049;-79
2023/04/24 01:42:36;;;;;;;2.13;1.92;;;10.90;99.90;;;;;;5053841;28;20056;-79
2023/04/24 01:45:03;;;;;;;4.97;2.78;;;10.90;99.90;;;;;;5044748;28;20041;-78
2023/04/24 01:47:30;;;;;;;3.38;2.90;;;10.90;99.90;;;;;;5060795;28;20045;-78
2023/04/24 01:49:56;;;;;;;3.47;3.17;;;10.90;99.90;;;;;;5051011;28;20053;-78
2023/04/24 01:52:21;;;;;;;2.67;2.47;;;10.90;99.90;;;;;;5041868;28;20059;-79
2023/04/24 01:54:47;;;;;;;2.88;2.67;;;10.90;99.90;;;;;;5076366;28;20405;-79
2023/04/24 01:57:14;;;;;;;3.05;2.80;;;10.90;99.90;;;;;;5043187;28;20056;-79
2023/04/24 01:59:40;;;;;;;3.35;3.05;;;10.90;99.90;;;;;;5061594;28;20143;-79
2023/04/24 02:02:06;;;;;;;3.72;3.42;;;10.90;99.90;;;;;;5061806;28;20811;-78
2023/04/24 02:04:31;;;;;;;3.40;3.20;;;10.90;99.90;;;;;;5060447;28;20130;-79
2023/04/24 02:06:57;;;;;;;3.13;2.83;;;10.90;99.90;;;;;;5058467;28;20521;-79
2023/04/24 02:09:23;;;;;;;3.95;3.65;;;10.90;99.90;;;;;;5044092;28;20066;-78
2023/04/24 02:11:48;;;;;;;3.30;3.03;;;10.80;99.90;;;;;;5044720;28;20118;-78
2023/04/24 02:14:14;;;;;;;4.75;3.95;;;10.80;99.90;;;;;;5046686;28;20044;-79
2023/04/24 02:16:40;;;;;;;4.85;4.35;;;10.90;99.90;;;;;;5062385;28;20127;-79
2023/04/24 02:19:05;;;;;;;4.47;4.13;;;10.80;99.90;;;;;;5058562;28;20044;-79
2023/04/24 02:21:31;;;;;;;5.35;4.85;;;10.80;99.90;;;;;;5059953;28;20051;-78
2023/04/24 02:23:57;;;;;;;4.93;4.53;;;10.80;99.90;;;;;;5059754;28;20123;-77
2023/04/24 02:26:23;;;;;;;5.28;4.80;;;10.90;99.90;;;;;;5060739;28;20068;-77
2023/04/24 02:28:48;;;;;;;5.55;5.05;;;10.90;99.90;;;;;;5092212;28;20481;-78
2023/04/24 02:31:14;;;;;;;5.85;5.28;;;10.80;99.90;;;;;;5060710;28;20048;-77
2023/04/24 02:33:40;;;;;;;6.10;5.50;;;10.80;99.90;;;;;;5060698;28;20386;-78
2023/04/24 02:36:06;;;;;;;5.65;5.15;;;10.90;99.90;;;;;;5057694;28;20460;-78
2023/04/24 02:38:32;;;;;;;5.93;5.32;;;10.90;99.90;;;;;;5054882;28;20102;-77
2023/04/24 02:40:58;;;;;;;6.53;5.93;;;10.90;99.90;;;;;;5042417;28;20063;-77
2023/04/24 02:43:23;;;;;;;5.90;5.40;;;10.90;99.90;;;;;;5054589;28;20049;-78
2023/04/24 02:45:49;;;;;;;6.68;6.07;;;10.90;99.90;;;;;;5052535;28;20052;-77
2023/04/24 02:48:15;;;;;;;6.45;5.68;;;10.90;99.90;;;;;;5052139;28;20044;-77
2023/04/24 02:50:41;;;;;;;7.15;6.55;;;10.90;99.90;;;;;;5048389;28;20106;-77
2023/04/24 02:53:06;;;;;;;6.00;5.50;;;10.90;99.90;;;;;;5059593;28;20040;-78
2023/04/24 02:55:32;;;;;;;7.72;7.13;;;10.80;99.90;;;;;;5059997;28;20044;-78
2023/04/24 02:57:58;;;;;;;7.70;7.00;;;10.80;99.90;;;;;;5061458;28;20054;-78
2023/04/24 03:00:23;;;;;;;8.05;7.35;;;10.80;99.90;;;;;;5055987;28;20492;-78
2023/04/24 03:02:49;;;;;;;7.72;7.13;;;10.80;99.90;;;;;;5053123;28;20070;-78
2023/04/24 03:05:15;;;;;;;8.93;8.18;;;10.80;99.90;;;;;;5056544;28;20040;-78
2023/04/24 03:07:41;;;;;;;8.73;7.97;;;10.70;99.90;;;;;;5060562;28;20764;-78
2023/04/24 03:10:07;;;;;;;8.60;7.90;;;10.70;99.90;;;;;;5060717;28;20059;-78
2023/04/24 03:12:33;;;;;;;9.18;8.50;;;10.70;99.90;;;;;;5059320;28;20045;-78
2023/04/24 03:14:59;;;;;;;9.15;8.35;;;10.70;99.90;;;;;;5060338;28;20057;-78
2023/04/24 03:17:24;;;;;;;9.15;8.05;;;10.70;99.90;;;;;;5060183;28;20052;-79
2023/04/24 03:19:50;;;;;;;8.05;7.35;;;10.60;99.90;;;;;;5059473;28;20086;-78
2023/04/24 03:22:16;;;;;;;7.38;6.78;;;10.60;99.90;;;;;;5057619;28;20806;-78
2023/04/24 03:24:42;;;;;;;7.82;7.22;;;10.60;99.90;;;;;;5048606;28;20045;-78
2023/04/24 03:27:07;;;;;;;7.78;7.07;;;10.60;99.90;;;;;;5052872;28;20391;-78
2023/04/24 03:29:33;;;;;;;7.68;6.95;;;10.70;99.90;;;;;;5048166;28;20056;-78
2023/04/24 03:31:59;;;;;;;7.07;6.57;;;10.60;99.90;;;;;;5060309;28;20370;-78
2023/04/24 03:34:25;;;;;;;6.82;6.32;;;10.60;99.90;;;;;;5048273;28;20158;-79
2023/04/24 03:36:50;;;;;;;7.05;6.35;;;10.60;99.90;;;;;;5060420;28;20037;-78
2023/04/24 03:39:16;;;;;;;7.30;6.70;;;10.60;99.90;;;;;;5049510;28;20060;-78
2023/04/24 03:41:42;;;;;;;6.57;6.07;;;10.60;99.90;;;;;;5044122;28;20067;-78
2023/04/24 03:44:07;;;;;;;6.40;5.82;;;10.60;99.90;;;;;;5050738;28;20052;-78
2023/04/24 03:46:33;;;;;;;6.03;5.53;;;10.50;99.90;;;;;;5041116;28;20115;-78
2023/04/24 03:48:59;;;;;;;6.13;5.63;;;10.50;99.90;;;;;;5051839;28;20515;-78
2023/04/24 03:51:25;;;;;;;6.10;5.55;;;10.50;99.90;;;;;;5060278;28;20060;-78
2023/04/24 03:53:50;;;;;;;6.20;5.70;;;10.50;99.90;;;;;;5051007;28;20049;-78
2023/04/24 03:56:17;;;;;;;6.35;5.75;;;10.50;99.90;;;;;;5055306;28;20040;-77
2023/04/24 03:58:42;;;;;;;5.32;4.80;;;10.50;99.90;;;;;;5060914;28;20739;-77
2023/04/24 04:01:08;;;;;;;6.07;5.60;;;10.50;99.90;;;;;;5063095;28;20100;-78
2023/04/24 04:03:33;;;;;;;5.90;5.50;;;10.50;99.90;;;;;;5083510;28;20091;-78
2023/04/24 04:05:59;;;;;;;5.40;5.00;;;10.50;99.90;;;;;;5045603;28;20044;-78
2023/04/24 04:08:25;;;;;;;5.32;4.93;;;10.50;99.90;;;;;;5055481;28;20460;-78
2023/04/24 04:10:51;;;;;;;5.65;5.25;;;10.50;99.90;;;;;;5058897;28;20049;-78
2023/04/24 04:13:16;;;;;;;6.00;5.18;;;10.50;99.90;;;;;;5041779;28;20173;-78
2023/04/24 04:15:43;;;;;;;6.10;5.55;;;10.90;99.90;;;;;;5058715;28;20070;-78
2023/04/24 04:18:08;;;;;;;5.72;4.95;;;10.40;99.90;;;;;;5049324;28;20435;-80
2023/04/24 04:20:34;;;;;;;5.40;5.00;;;10.40;99.90;;;;;;5053753;28;20552;-78
2023/04/24 04:23:00;;;;;;;6.40;5.80;;;10.30;99.90;;;;;;5085674;28;20550;-78
2023/04/24 04:25:25;;;;;;;6.60;6.10;;;10.30;99.90;;;;;;5054043;28;20067;-78
2023/04/24 04:27:52;;;;;;;6.45;5.85;;;10.30;99.90;;;;;;5052618;28;20126;-77
2023/04/24 04:30:18;;;;;;;6.65;6.05;;;10.30;99.90;;;;;;5058354;28;20070;-78
2023/04/24 04:32:44;;;;;;;7.47;6.60;;;10.20;99.90;;;;;;5058502;28;20056;-78
2023/04/24 04:35:10;;;;;;;7.85;7.03;;;10.20;99.90;;;;;;5058028;28;20056;-77
2023/04/24 04:37:35;;;;;;;6.85;6.25;;;10.20;99.90;;;;;;5057010;28;20045;-78
2023/04/24 04:40:11;;;;;;;6.15;5.63;;;10.20;99.90;;;;;;5040610;28;20124;-78
2023/04/24 04:42:40;;;;;;;6.55;6.05;;;10.20;99.90;;;;;;5037975;28;20053;-77
2023/04/24 04:45:08;;;;;;;7.53;6.82;;;10.10;99.90;;;;;;5053200;28;20064;-77
2023/04/24 04:47:34;;;;;;;6.63;5.95;;;10.20;99.90;;;;;;5044850;28;20083;-77
2023/04/24 04:50:00;;;;;;;6.28;5.70;;;10.10;99.90;;;;;;5038934;28;20055;-78
2023/04/24 04:52:26;;;;;;;5.45;4.95;;;10.20;99.90;;;;;;5047672;28;20041;-78
2023/04/24 04:54:52;;;;;;;5.82;5.38;;;10.10;99.90;;;;;;5052821;28;20068;-78
2023/04/24 04:57:18;;;;;;;5.25;4.78;;;10.20;99.90;;;;;;5047440;28;20143;-78
2023/04/24 04:59:44;;;;;;;5.07;4.68;;;10.10;99.90;;;;;;5048995;28;20044;-78
2023/04/24 05:02:10;;;;;;;4.75;4.22;;;10.20;99.90;;;;;;5044777;28;20064;-78
2023/04/24 05:04:36;;;;;;;4.65;4.30;;;10.20;99.90;;;;;;5045968;28;20497;-78
2023/04/24 05:07:01;;;;;;;5.03;4.50;;;10.20;99.90;;;;;;5042547;28;20057;-78
2023/04/24 05:09:29;;;;;;;4.15;3.13;;;9.20;99.90;;;;;;5045817;28;20056;-77
2023/04/24 05:11:55;;;;;;;3.15;2.55;;;10.20;99.90;;;;;;5049930;28;20056;-77
2023/04/24 05:14:21;;;;;;;3.15;2.88;;;10.10;99.90;;;;;;5043341;28;20060;-78
2023/04/24 05:16:47;;;;;;;3.10;2.08;;;10.10;99.90;;;;;;5049897;28;20083;-80
2023/04/24 05:19:14;;;;;;;3.20;2.45;;;10.10;99.90;;;;;;5059684;28;20045;-77
2023/04/24 05:21:40;;;;;;;2.78;2.03;;;10.10;99.90;;;;;;5047913;28;20055;-78
2023/04/24 05:24:06;;;;;;;2.63;2.28;;;10.10;99.90;;;;;;5046325;28;20044;-79
2023/04/24 05:26:32;;;;;;;2.70;1.83;;;10.10;99.90;;;;;;5047875;28;20173;-78
2023/04/24 05:28:58;;;;;;;6.55;2.05;;;10.10;99.90;;;;;;5089387;28;20185;-77
2023/04/24 05:31:23;;;;;;;6.43;2.78;;;10.10;99.90;;;;;;5047846;28;20501;-80
2023/04/24 05:33:49;;;;;;;2.00;1.80;;;10.10;99.90;;;;;;5054479;28;20086;-77
2023/04/24 05:36:15;;;;;;;2.13;1.88;;;10.20;99.90;;;;;;5054316;28;20046;-78
2023/04/24 05:38:41;;;;;;;1.75;1.65;;;10.10;99.90;;;;;;5055136;28;20532;-78
2023/04/24 05:41:06;;;;;;;2.28;1.75;;;10.10;99.90;;;;;;5052652;28;20158;-78
2023/04/24 05:43:32;;;;;;;1.85;1.75;;;10.10;99.90;;;;;;5060785;28;20659;-78
2023/04/24 05:45:58;;;;;;;2.15;2.00;;;10.10;99.90;;;;;;5052782;28;20040;-78
2023/04/24 05:48:23;;;;;;;1.70;1.60;;;10.10;99.90;;;;;;5049224;28;20052;-78
2023/04/24 05:50:49;;;;;;;1.90;1.80;;;10.10;99.90;;;;;;5059455;28;20044;-79
2023/04/24 05:53:15;;;;;;;3.15;2.33;;;10.20;99.90;;;;;;5061166;28;20044;-79
2023/04/24 05:55:41;;;;;;;2.30;2.10;;;10.10;99.90;;;;;;5056186;28;20056;-79
2023/04/24 05:58:06;;;;;;;2.05;1.63;;;10.10;99.90;;;;;;5049459;28;20049;-78
2023/04/24 06:00:33;;;;;;;2.17;1.92;;;10.10;99.90;;;;;;5054440;28;20136;-80
2023/04/24 06:03:00;;;;;;;2.50;1.77;;;10.20;99.90;;;;;;5055157;28;20041;-78
2023/04/24 06:05:26;;;;;;;2.33;2.08;;;10.20;99.90;;;;;;5054272;28;20048;-80
2023/04/24 06:07:52;;;;;;;3.72;1.92;;;10.20;99.90;;;;;;5046835;28;20209;-80
2023/04/24 06:10:18;;;;;;;2.10;2.00;;;10.20;99.90;;;;;;5049318;28;20102;-81
2023/04/24 06:12:43;;;;;;;2.03;1.83;;;10.20;99.90;;;;;;5047629;28;20044;-78
2023/04/24 06:15:09;;;;;;;2.50;2.30;;;10.30;99.90;;;;;;5052748;28;20040;-78
2023/04/24 06:17:35;;;;;;;2.50;2.30;;;10.30;99.90;;;;;;5043217;28;20052;-78
2023/04/24 06:20:03;;;;;;;2.25;2.05;;;10.30;99.90;;;;;;5043162;28;20045;-79
2023/04/24 06:22:29;;;;;;;1.95;1.85;;;10.30;99.90;;;;;;5091204;28;20110;-79
2023/04/24 06:24:55;;;;;;;1.70;1.60;;;10.30;99.90;;;;;;5060227;28;20089;-78
2023/04/24 06:27:20;;;;;;;2.15;1.90;;;10.30;99.90;;;;;;5057807;28;20865;-79
2023/04/24 06:29:52;;;;;;;4.32;2.10;;;10.30;99.90;;;;;;5048696;28;20512;-79
2023/04/24 06:32:18;;;;;;;2.88;1.70;;;10.30;99.90;;;;;;5047661;28;20580;-79
2023/04/24 06:34:43;;;;;;;2.17;1.70;;;10.40;99.90;;;;;;5060137;28;20044;-79
2023/04/24 06:37:09;;;;;;;2.10;1.90;;;10.40;99.90;;;;;;5054471;28;20056;-79
2023/04/24 06:39:35;;;;;;;3.15;2.42;;;10.50;99.90;;;;;;5057215;28;20071;-78
2023/04/24 06:42:00;;;;;;;2.72;2.38;;;10.50;99.90;;;;;;5061108;28;20421;-79
2023/04/24 06:44:26;;;;;;;4.68;3.10;;;10.50;99.90;;;;;;5053332;28;20587;-80
2023/04/24 06:46:52;;;;;;;5.72;3.33;;;10.60;99.90;;;;;;5057857;28;20127;-80
2023/04/24 06:49:17;;;;;;;4.05;3.60;;;10.60;99.90;;;;;;5088086;28;20060;-78
2023/04/24 06:51:43;;;;;;;3.53;3.22;;;10.60;99.90;;;;;;5048250;28;20049;-78
2023/04/24 06:54:09;;;;;;;4.15;3.53;;;10.70;99.90;;;;;;5087791;28;20041;-78
2023/04/24 06:56:35;;;;;;;5.20;3.70;;;10.70;99.90;;;;;;5089841;28;20120;-78
2023/04/24 06:59:00;;;;;;;5.05;4.15;;;10.80;99.90;;;;;;5061520;28;20048;-79
2023/04/24 07:01:27;;;;;;;5.40;4.63;;;10.70;99.90;;;;;;5061289;28;20083;-78
2023/04/24 07:03:52;;;;;;;6.30;4.55;;;10.80;99.90;;;;;;5062072;28;20445;-80
2023/04/24 07:06:21;;;;;;;7.97;4.97;;;10.80;99.90;;;;;;5059523;28;20044;-76
2023/04/24 07:08:47;;;;;;;7.25;5.55;;;10.80;99.90;;;;;;5045865;28;20088;-79
2023/04/24 07:11:13;;;;;;;5.38;4.85;;;10.90;99.90;;;;;;5052007;28;20080;-77
2023/04/24 07:13:41;;;;;;;7.93;5.38;;;10.90;99.90;;;;;;5056426;28;20139;-77
2023/04/24 07:16:08;;;;;;;7.13;5.40;;;10.80;99.90;;;;;;5049941;28;20310;-80
2023/04/24 07:18:36;;;;;;;5.78;5.00;;;10.80;99.90;;;;;;5061320;28;20137;-80
2023/04/24 07:21:02;;;;;;;6.72;5.20;;;10.90;99.90;;;;;;5058530;28;20052;-81
2023/04/24 07:23:27;;;;;;;5.65;5.07;;;10.80;99.90;;;;;;5061452;28;20520;-81
2023/04/24 07:25:53;;;;;;;6.80;4.97;;;10.80;99.90;;;;;;5056586;28;20132;-81
2023/04/24 07:28:20;;;;;;;6.97;4.70;;;10.80;99.90;;;;;;5053626;28;20053;-80
2023/04/24 07:30:46;;;;;;;4.03;3.65;;;10.80;99.90;;;;;;5061429;28;20060;-77
2023/04/24 07:33:13;;;;;;;4.80;2.88;;;10.80;99.90;;;;;;5057799;28;20055;-78
2023/04/24 07:35:39;;;;;;;7.90;2.53;;;10.70;99.90;;;;;;5056667;28;20928;-77
2023/04/24 07:38:04;;;;;;;4.07;3.05;;;10.70;99.90;;;;;;5089297;28;20424;-80
2023/04/24 07:40:30;;;;;;;5.22;2.95;;;10.70;99.90;;;;;;5047867;28;20081;-77
2023/04/24 07:42:56;;;;;;;3.35;2.50;;;10.70;99.90;;;;;;5046837;28;20114;-77
2023/04/24 07:45:23;;;;;;;4.10;2.70;;;10.60;99.90;;;;;;5060722;28;20063;-76
2023/04/24 07:47:50;;;;;;;3.45;2.63;;;10.70;99.90;;;;;;5045204;28;20052;-77
2023/04/24 07:50:16;;;;;;;3.20;2.50;;;10.70;99.90;;;;;;5050528;28;20414;-78
2023/04/24 07:52:41;;;;;;;2.80;2.03;;;10.70;99.90;;;;;;5057516;28;20064;-76
2023/04/24 07:55:08;;;;;;;2.22;2.03;;;10.60;99.90;;;;;;5055187;28;20131;-77
2023/04/24 07:57:33;;;;;;;2.65;2.30;;;10.60;99.90;;;;;;5058702;28;20071;-78
2023/04/24 07:59:59;;;;;;;3.55;2.42;;;10.60;99.90;;;;;;5054367;28;20568;-78
2023/04/24 08:02:26;;;;;;;4.00;2.55;;;10.70;99.90;;;;;;5059297;28;20052;-77
2023/04/24 08:04:55;;;;;;;5.20;3.15;;;10.60;99.90;;;;;;5058381;28;20044;-78
2023/04/24 08:07:21;;;;;;;5.10;2.70;;;10.60;99.90;;;;;;5056181;28;20049;-78
2023/04/24 08:09:47;;;;;;;4.28;3.05;;;10.60;99.90;;;;;;5041539;28;20798;-77
2023/04/24 08:12:12;;;;;;;3.20;3.00;;;10.60;99.90;;;;;;5056231;28;20075;-77
2023/04/24 08:14:38;;;;;;;5.68;2.70;;;10.60;99.90;;;;;;5057853;28;20825;-78
2023/04/24 08:17:04;;;;;;;5.95;2.80;;;10.50;99.90;;;;;;5042357;28;20083;-78
2023/04/24 08:19:29;;;;;;;3.53;3.00;;;10.50;99.90;;;;;;5050992;28;20044;-78
2023/04/24 08:21:55;;;;;;;5.57;3.10;;;10.40;99.90;;;;;;5056782;28;20040;-77
2023/04/24 08:24:21;;;;;;;5.07;3.58;;;10.40;99.90;;;;;;5049130;28;20061;-77
2023/04/24 08:26:50;;;;;;;6.53;3.50;;;10.40;99.90;;;;;;5053578;28;20070;-78
2023/04/24 08:29:16;;;;;;;5.07;4.13;;;10.50;99.90;;;;;;5045432;28;20516;-78
2023/04/24 08:31:41;;;;;;;6.65;5.38;;;10.40;99.90;;;;;;5051351;28;20120;-81
2023/04/24 08:34:07;;;;;;;8.02;5.35;;;10.40;99.90;;;;;;5060018;28;20045;-78
2023/04/24 08:36:33;;;;;;;8.20;6.55;;;10.40;99.90;;;;;;5047188;28;20052;-78
2023/04/24 08:38:59;;;;;;;8.35;6.57;;;10.40;99.90;;;;;;5059943;28;20040;-79
2023/04/24 08:41:26;;;;;;;13.20;8.88;;;10.40;99.90;;;;;;5059404;28;20485;-78
2023/04/24 08:43:52;;;;;;;11.68;8.95;;;10.40;99.90;;;;;;5060641;28;20084;-78
2023/04/24 08:46:19;;;;;;;15.60;11.95;;;10.40;99.90;;;;;;5059945;28;20132;-78
2023/04/24 08:48:45;;;;;;;16.00;11.02;;;10.40;99.90;;;;;;5050127;28;20048;-78
2023/04/24 08:51:11;;;;;;;19.65;12.38;;;10.30;99.90;;;;;;5039351;28;20102;-80
2023/04/24 08:53:37;;;;;;;15.90;10.38;;;10.20;99.90;;;;;;5055978;28;20052;-81
2023/04/24 08:56:03;;;;;;;24.05;11.55;;;10.10;99.90;;;;;;5057409;28;20044;-81
2023/04/24 08:58:29;;;;;;;19.70;11.93;;;10.10;99.90;;;;;;5063208;28;20044;-82
2023/04/24 09:00:55;;;;;;;18.08;10.80;;;10.20;99.90;;;;;;5064327;28;20048;-82
2023/04/24 09:03:22;;;;;;;20.90;13.98;;;10.10;99.90;;;;;;5063526;28;20055;-81
2023/04/24 09:05:50;;;;;;;19.83;11.80;;;10.10;99.90;;;;;;5064290;28;20110;-81
2023/04/24 09:08:19;;;;;;;15.63;11.82;;;10.00;99.90;;;;;;5063502;28;20044;-84
2023/04/24 09:10:45;;;;;;;17.45;10.95;;;10.00;99.90;;;;;;5064718;28;20043;-84
2023/04/24 09:13:11;;;;;;;17.33;10.75;;;10.00;99.90;;;;;;5062914;28;20040;-83
2023/04/24 09:15:38;;;;;;;16.90;11.10;;;10.00;99.90;;;;;;5059702;28;20048;-82
2023/04/24 09:18:05;;;;;;;16.40;11.45;;;9.90;99.90;;;;;;5054362;28;20080;-83
2023/04/24 09:20:32;;;;;;;13.27;10.57;;;9.90;99.90;;;;;;5061930;28;20056;-82
2023/04/24 09:22:58;;;;;;;17.27;10.43;;;9.80;99.90;;;;;;5064189;28;20080;-80
2023/04/24 09:25:32;;;;;;;15.98;11.25;;;9.80;99.90;;;;;;5060026;28;20049;-83
2023/04/24 09:28:02;;;;;;;20.40;11.80;;;9.80;99.90;;;;;;5064509;28;20128;-82
2023/04/24 09:30:28;;;;;;;14.82;11.85;;;9.80;99.90;;;;;;5064089;28;20133;-82
2023/04/24 09:33:15;;;;;;;16.40;11.02;;;9.80;99.90;;;;;;5062435;28;20056;-83
2023/04/24 09:35:51;;;;;;;19.08;10.93;;;9.80;99.90;;;;;;5038904;28;20060;-80
2023/04/24 09:38:17;;;;;;;14.00;9.82;;;9.80;99.90;;;;;;5057800;28;20497;-82
2023/04/24 09:40:43;;;;;;;12.75;10.07;;;9.90;99.90;;;;;;5051975;28;20249;-84
2023/04/24 09:43:12;;;;;;;13.35;9.82;;;9.80;99.90;;;;;;5049486;28;20098;-84
2023/04/24 09:45:39;;;;;;;12.45;8.50;;;9.80;99.90;;;;;;5064213;28;20048;-84
2023/04/24 09:48:06;;;;;;;10.07;7.63;;;9.80;99.90;;;;;;5065200;28;20047;-85
2023/04/24 09:50:34;;;;;;;13.85;7.80;;;9.90;99.90;;;;;;5048115;28;20060;-80
2023/04/24 09:53:02;;;;;;;13.85;8.23;;;9.90;99.90;;;;;;5083180;28;20037;-84
2023/04/24 09:55:28;;;;;;;9.75;7.80;;;9.90;99.90;;;;;;5062258;28;20044;-83
2023/04/24 09:57:56;;;;;;;8.70;7.65;;;9.90;99.90;;;;;;5058968;28;20052;-83
2023/04/24 10:00:28;;;;;;;13.95;8.02;;;9.80;99.90;;;;;;5062177;28;20056;-82
2023/04/24 10:03:01;;;;;;;11.05;8.38;;;9.80;99.90;;;;;;5048898;28;20044;-83
2023/04/24 10:05:35;;;;;;;11.25;7.65;;;9.80;99.90;;;;;;5057772;28;20106;-83
2023/04/24 10:08:20;;;;;;;12.13;8.15;;;9.70;99.90;;;;;;5062861;28;20048;-83
2023/04/24 10:10:46;;;;;;;10.63;7.22;;;9.70;99.90;;;;;;5060686;28;20052;-83
2023/04/24 10:13:14;;;;;;;11.90;6.78;;;9.70;99.90;;;;;;5052170;28;20088;-81
2023/04/24 10:15:41;;;;;;;11.35;7.03;;;9.70;99.90;;;;;;5049129;28;20124;-85
2023/04/24 10:18:09;;;;;;;12.45;7.57;;;9.90;99.90;;;;;;5051026;28;20051;-81
2023/04/24 10:20:36;;;;;;;8.88;7.55;;;10.00;99.90;;;;;;5049763;28;20078;-84
2023/04/24 10:23:03;;;;;;;12.32;6.93;;;10.00;99.90;;;;;;5047186;28;20417;-81
2023/04/24 10:25:34;;;;;;;9.75;6.95;;;10.10;99.90;;;;;;5053634;28;20041;-83
2023/04/24 10:28:00;;;;;;;8.98;6.35;;;10.20;99.90;;;;;;5053847;28;20482;-82
2023/04/24 10:30:28;;;;;;;13.55;6.78;;;10.30;99.90;;;;;;5053430;28;20067;-83
2023/04/24 10:32:54;;;;;;;13.23;5.88;;;10.40;99.90;;;;;;5061252;28;20084;-82
2023/04/24 10:35:22;;;;;;;10.75;4.95;;;10.50;99.90;;;;;;5058850;28;20151;-84
2023/04/24 10:38:06;;;;;;;5.32;4.32;;;10.60;99.90;;;;;;5065585;28;20128;-80
2023/04/24 10:40:34;;;;;;;10.27;4.18;;;10.60;99.90;;;;;;5064965;28;20045;-79
2023/04/24 10:43:03;;;;;;;8.27;4.22;;;10.70;99.90;;;;;;5077124;28;20088;-82
2023/04/24 10:45:28;;;;;;;7.43;4.35;;;10.80;99.90;;;;;;5063264;28;20049;-79
2023/04/24 10:47:58;;;;;;;6.00;4.50;;;10.70;99.90;;;;;;5070665;28;20671;-80
2023/04/24 10:50:26;;;;;;;6.45;3.65;;;10.70;99.90;;;;;;5062839;28;20105;-82
2023/04/24 10:52:54;;;;;;;8.15;4.80;;;10.60;99.90;;;;;;5094333;28;20137;-83
2023/04/24 10:55:39;;;;;;;7.75;4.45;;;10.60;99.90;;;;;;5057523;28;20119;-83
2023/04/24 10:58:05;;;;;;;7.63;3.88;;;10.60;99.90;;;;;;5060736;28;20131;-82
2023/04/24 11:00:31;;;;;;;10.77;5.00;;;10.60;99.90;;;;;;5048705;28;20135;-82
2023/04/24 11:02:57;;;;;;;5.18;3.58;;;10.70;99.90;;;;;;5059221;28;20794;-83
2023/04/24 11:05:53;;;;;;;5.68;3.70;;;10.80;99.90;;;;;;5043208;28;20052;-81
2023/04/24 11:08:30;;;;;;;5.28;3.13;;;10.70;99.90;;;;;;5042557;28;20053;-81
2023/04/24 11:11:13;;;;;;;6.47;3.53;;;10.70;99.90;;;;;;5042157;28;20056;-84
2023/04/24 11:13:54;;;;;;;6.47;3.63;;;10.80;99.90;;;;;;5052570;28;20906;-83
2023/04/24 11:16:46;;;;;;;6.28;3.15;;;10.70;99.90;;;;;;5042210;28;20056;-87
2023/04/24 11:19:15;;;;;;;4.65;3.40;;;10.70;99.90;;;;;;5053352;28;20473;-82
2023/04/24 11:21:44;;;;;;;6.35;3.47;;;10.90;99.90;;;;;;5052505;28;20105;-82
2023/04/24 11:24:37;;;;;;;6.82;3.13;;;10.90;99.90;;;;;;5059316;28;20049;-86
2023/04/24 11:27:03;;;;;;;4.78;2.70;;;10.90;99.90;;;;;;5046228;28;20186;-85
2023/04/24 11:29:45;;;;;;;6.28;3.65;;;10.90;99.90;;;;;;5048994;28;20501;-83
2023/04/24 11:32:32;;;;;;;5.20;2.97;;;10.90;99.90;;;;;;5060754;28;20214;-81
2023/04/24 11:35:20;;;;;;;4.95;2.75;;;10.90;99.90;;;;;;5054420;28;20040;-84
2023/04/24 11:37:49;;;;;;;8.60;3.47;;;10.80;99.90;;;;;;5057999;28;20055;-81
2023/04/24 11:40:19;;;;;;;6.88;3.47;;;10.80;99.90;;;;;;5058318;28;20044;-84
2023/04/24 11:42:46;;;;;;;3.97;2.80;;;10.70;99.90;;;;;;5049274;28;20590;-82
2023/04/24 11:45:17;;;;;;;6.70;2.85;;;10.70;99.90;;;;;;5059837;28;20048;-83
2023/04/24 11:47:44;;;;;;;7.40;2.90;;;10.70;99.90;;;;;;5058170;28;20044;-80
2023/04/24 11:50:14;;;;;;;7.45;2.53;;;10.70;99.90;;;;;;5044174;28;20048;-81
2023/04/24 11:52:42;;;;;;;5.60;2.40;;;10.70;99.90;;;;;;5054465;28;20520;-85
2023/04/24 11:55:19;;;;;;;4.38;3.03;;;10.80;99.90;;;;;;5046302;28;20041;-86
2023/04/24 11:57:47;;;;;;;4.30;2.95;;;10.90;99.90;;;;;;5054472;28;20049;-82
2023/04/24 12:00:34;;;;;;;5.53;2.97;;;10.90;99.90;;;;;;5043711;28;20546;-85
2023/04/24 12:03:12;;;;;;;4.07;2.30;;;10.90;99.90;;;;;;5052760;28;20076;-84
2023/04/24 12:05:38;;;;;;;5.55;2.58;;;10.80;99.90;;;;;;5051449;28;20041;-87
2023/04/24 12:08:04;;;;;;;4.78;2.22;;;10.70;99.90;;;;;;5052709;28;20041;-81
2023/04/24 12:10:32;;;;;;;7.25;2.80;;;10.80;99.90;;;;;;5053875;28;20047;-83
2023/04/24 12:12:59;;;;;;;4.70;2.25;;;10.80;99.90;;;;;;5056223;28;20079;-83
2023/04/24 12:15:26;;;;;;;3.88;2.45;;;10.70;99.90;;;;;;5055683;28;20610;-86
2023/04/24 12:17:53;;;;;;;5.55;3.13;;;10.60;99.90;;;;;;5053657;28;20048;-82
2023/04/24 12:20:25;;;;;;;5.85;2.67;;;10.60;99.90;;;;;;5054344;28;20051;-81
2023/04/24 12:22:56;;;;;;;4.13;2.25;;;10.30;99.90;;;;;;5090664;28;20052;-84
2023/04/24 12:25:23;;;;;;;3.90;2.45;;;10.30;99.90;;;;;;5053442;28;20406;-81
2023/04/24 12:28:04;;;;;;;4.50;2.20;;;10.30;99.90;;;;;;5061766;28;20080;-82
2023/04/24 12:30:34;;;;;;;5.05;1.98;;;10.10;99.90;;;;;;5060556;28;20060;-81
2023/04/24 12:33:02;;;;;;;4.68;2.60;;;10.50;99.90;;;;;;5043516;28;20106;-80
2023/04/24 12:35:29;;;;;;;2.88;1.80;;;10.50;99.90;;;;;;5063676;28;20098;-83
2023/04/24 12:37:55;;;;;;;5.22;2.28;;;10.60;99.90;;;;;;5063777;28;20598;-80
2023/04/24 12:40:21;;;;;;;7.50;3.13;;;10.60;99.90;;;;;;5058274;28;20049;-83
2023/04/24 12:42:49;;;;;;;3.42;2.40;;;10.60;99.90;;;;;;5044657;28;20136;-83
2023/04/24 12:45:16;;;;;;;3.70;2.20;;;10.70;99.90;;;;;;5060674;28;20148;-82